Time,TemperatureF,DewpointF,PressureIn,WindDirection,WindDirectionDegrees,WindSpeedMPH,WindSpeedGustMPH,Humidity,HourlyPrecipIn,Conditions,Clouds,dailyrainin,SoftwareType,DateUTC
2013-09-26 00:14:00,49.0,45.0,30.01,NNW,328,5.0,13.0,87,0.00,,,0.00,,2013-09-26 04:14:00,
2013-09-26 00:24:00,50.0,46.0,30.02,NW,312,4.0,14.0,85,0.00,,,0.00,,2013-09-26 04:24:00,
2013-09-26 00:54:00,50.0,46.0,30.02,NW,322,4.0,12.0,85,0.00,,,0.00,,2013-09-26 04:54:00,
2013-09-26 01:12:00,50.0,45.0,30.03,NW,318,4.0,12.0,84,0.00,,,0.00,,2013-09-26 05:12:00,
2013-09-26 01:23:00,49.0,45.0,30.03,NW,318,4.0,13.0,85,0.00,,,0.00,,2013-09-26 05:23:00,
2013-09-26 01:43:00,49.0,45.0,30.03,NW,321,3.0,9.0,86,0.00,,,0.00,,2013-09-26 05:43:00,
2013-09-26 01:52:00,48.0,44.0,30.03,NW,305,4.0,11.0,87,0.00,,,0.00,,2013-09-26 05:52:00,
2013-09-26 02:13:00,48.0,45.0,30.04,NNW,335,2.0,7.0,88,0.00,,,0.00,,2013-09-26 06:13:00,
2013-09-26 02:22:00,47.0,44.0,30.03,NW,305,2.0,7.0,89,0.00,,,0.00,,2013-09-26 06:22:00,
2013-09-26 02:42:00,47.0,44.0,30.03,North,354,4.0,8.0,90,0.00,,,0.00,,2013-09-26 06:42:00,
2013-09-26 02:53:00,47.0,45.0,30.04,NNW,328,1.0,8.0,91,0.00,,,0.00,,2013-09-26 06:53:00,
2013-09-26 03:12:00,46.0,44.0,30.04,NW,323,3.0,8.0,92,0.00,,,0.00,,2013-09-26 07:12:00,
2013-09-26 03:22:00,46.0,44.0,30.04,NW,314,4.0,9.0,92,0.00,,,0.00,,2013-09-26 07:22:00,
2013-09-26 03:42:00,46.0,44.0,30.04,NW,316,2.0,5.0,93,0.00,,,0.00,,2013-09-26 07:42:00,
2013-09-26 03:53:00,46.0,44.0,30.03,NW,316,1.0,6.0,93,0.00,,,0.00,,2013-09-26 07:53:00,
2013-09-26 04:11:00,47.0,45.0,30.04,NNW,333,2.0,7.0,93,0.00,,,0.00,,2013-09-26 08:11:00,
2013-09-26 04:22:00,47.0,45.0,30.04,NW,312,2.0,5.0,92,0.00,,,0.00,,2013-09-26 08:22:00,
2013-09-26 04:42:00,47.0,45.0,30.04,NW,320,4.0,7.0,92,0.00,,,0.00,,2013-09-26 08:42:00,
2013-09-26 04:52:00,48.0,45.0,30.04,NW,314,2.0,9.0,90,0.00,,,0.00,,2013-09-26 08:52:00,
2013-09-26 05:11:00,48.0,45.0,30.04,NW,310,3.0,9.0,90,0.00,,,0.00,,2013-09-26 09:11:00,
2013-09-26 05:22:00,48.0,45.0,30.04,NW,321,3.0,10.0,90,0.00,,,0.00,,2013-09-26 09:22:00,
2013-09-26 05:43:00,48.0,45.0,30.05,NNW,329,2.0,7.0,90,0.00,,,0.00,,2013-09-26 09:43:00,
2013-09-26 05:53:00,48.0,45.0,30.05,WNW,299,3.0,10.0,90,0.00,,,0.00,,2013-09-26 09:53:00,
2013-09-26 06:12:00,48.0,45.0,30.05,NNW,334,4.0,12.0,90,0.00,,,0.00,,2013-09-26 10:12:00,
2013-09-26 06:23:00,48.0,45.0,30.05,NW,312,2.0,6.0,90,0.00,,,0.00,,2013-09-26 10:23:00,
2013-09-26 06:42:00,49.0,46.0,30.05,NW,316,6.0,11.0,89,0.00,,,0.00,,2013-09-26 10:42:00,
2013-09-26 06:53:00,49.0,46.0,30.06,NW,307,4.0,10.0,90,0.00,,,0.00,,2013-09-26 10:53:00,
2013-09-26 07:12:00,49.0,46.0,30.06,NNW,335,5.0,11.0,90,0.00,,,0.00,,2013-09-26 11:12:00,
2013-09-26 07:22:00,49.0,46.0,30.06,North,354,4.0,13.0,90,0.00,,,0.00,,2013-09-26 11:22:00,
2013-09-26 07:42:00,49.0,46.0,30.07,WNW,302,4.0,13.0,91,0.00,,,0.00,,2013-09-26 11:42:00,
2013-09-26 07:52:00,49.0,46.0,30.07,NW,320,5.0,9.0,90,0.00,,,0.00,,2013-09-26 11:52:00,
2013-09-26 08:12:00,50.0,47.0,30.07,NW,310,2.0,7.0,89,0.00,,,0.00,,2013-09-26 12:12:00,
2013-09-26 08:22:00,50.0,47.0,30.07,NNE,19,3.0,12.0,88,0.00,,,0.00,,2013-09-26 12:22:00,
2013-09-26 08:42:00,51.0,47.0,30.08,NNW,329,6.0,17.0,87,0.00,,,0.00,,2013-09-26 12:42:00,
2013-09-26 08:52:00,51.0,47.0,30.08,NE,37,6.0,16.0,86,0.00,,,0.00,,2013-09-26 12:52:00,
2013-09-26 09:12:00,52.0,48.0,30.08,WNW,293,6.0,13.0,85,0.00,,,0.00,,2013-09-26 13:12:00,
2013-09-26 09:22:00,53.0,48.0,30.08,NE,49,3.0,18.0,84,0.00,,,0.00,,2013-09-26 13:22:00,
2013-09-26 09:42:00,53.0,47.0,30.09,NNE,23,5.0,15.0,81,0.00,,,0.00,,2013-09-26 13:42:00,
2013-09-26 09:52:00,53.0,47.0,30.09,North,354,9.0,18.0,79,0.00,,,0.00,,2013-09-26 13:52:00,
2013-09-26 10:11:00,54.0,47.0,30.09,ENE,58,6.0,17.0,78,0.00,,,0.00,,2013-09-26 14:11:00,
2013-09-26 10:22:00,54.0,48.0,30.09,NNW,342,5.0,17.0,79,0.00,,,0.00,,2013-09-26 14:22:00,
2013-09-26 10:42:00,54.0,47.0,30.10,NE,50,6.0,16.0,78,0.00,,,0.00,,2013-09-26 14:42:00,
2013-09-26 10:52:00,54.0,48.0,30.10,North,4,7.0,14.0,79,0.00,,,0.00,,2013-09-26 14:52:00,
2013-09-26 11:11:00,54.0,48.0,30.10,WNW,293,5.0,16.0,79,0.00,,,0.00,,2013-09-26 15:11:00,
2013-09-26 11:22:00,55.0,48.0,30.09,NNE,23,8.0,17.0,76,0.00,,,0.00,,2013-09-26 15:22:00,
2013-09-26 11:44:00,56.0,49.0,30.09,NW,324,7.0,14.0,76,0.00,,,0.00,,2013-09-26 15:44:00,
2013-09-26 11:53:00,56.0,48.0,30.09,NW,324,5.0,12.0,75,0.00,,,0.00,,2013-09-26 15:53:00,
2013-09-26 12:13:00,56.0,48.0,30.09,NNW,341,6.0,16.0,75,0.00,,,0.00,,2013-09-26 16:13:00,
2013-09-26 12:24:00,57.0,49.0,30.09,NW,310,4.0,13.0,75,0.00,,,0.00,,2013-09-26 16:24:00,
2013-09-26 12:43:00,58.0,49.0,30.09,NNE,14,7.0,17.0,71,0.00,,,0.00,,2013-09-26 16:43:00,
2013-09-26 12:53:00,58.0,48.0,30.09,NNW,337,8.0,18.0,70,0.00,,,0.00,,2013-09-26 16:53:00,
2013-09-26 13:12:00,58.0,49.0,30.09,North,354,3.0,13.0,73,0.00,,,0.00,,2013-09-26 17:12:00,
2013-09-26 13:23:00,58.0,49.0,30.09,NNW,341,3.0,9.0,73,0.00,,,0.00,,2013-09-26 17:23:00,
2013-09-26 13:52:00,59.0,50.0,30.09,NW,324,6.0,15.0,71,0.00,,,0.00,,2013-09-26 17:52:00,
2013-09-26 14:13:00,59.0,49.0,30.09,NNW,337,6.0,15.0,70,0.00,,,0.00,,2013-09-26 18:13:00,
2013-09-26 14:22:00,59.0,50.0,30.09,NNW,332,4.0,12.0,71,0.00,,,0.00,,2013-09-26 18:22:00,
2013-09-26 14:42:00,60.0,50.0,30.08,NNW,331,5.0,12.0,70,0.00,,,0.00,,2013-09-26 18:42:00,
2013-09-26 14:52:00,59.0,49.0,30.08,NNE,23,6.0,16.0,70,0.00,,,0.00,,2013-09-26 18:52:00,
2013-09-26 15:12:00,59.0,49.0,30.08,NNE,18,6.0,14.0,70,0.00,,,0.00,,2013-09-26 19:12:00,
2013-09-26 15:22:00,59.0,50.0,30.08,NE,40,3.0,15.0,71,0.00,,,0.00,,2013-09-26 19:22:00,
2013-09-26 15:52:00,59.0,50.0,30.09,NNW,329,4.0,11.0,73,0.00,,,0.00,,2013-09-26 19:52:00,
2013-09-26 16:12:00,59.0,50.0,30.09,NNE,22,5.0,13.0,72,0.00,,,0.00,,2013-09-26 20:12:00,
2013-09-26 16:23:00,59.0,51.0,30.09,NW,322,5.0,17.0,74,0.00,,,0.00,,2013-09-26 20:23:00,
2013-09-26 16:43:00,58.0,50.0,30.09,NNW,329,6.0,19.0,75,0.00,,,0.00,,2013-09-26 20:43:00,
2013-09-26 16:52:00,58.0,50.0,30.10,North,4,4.0,14.0,76,0.00,,,0.00,,2013-09-26 20:52:00,
2013-09-26 17:12:00,57.0,49.0,30.10,North,4,5.0,15.0,75,0.00,,,0.00,,2013-09-26 21:12:00,
2013-09-26 17:23:00,58.0,50.0,30.11,North,354,4.0,14.0,75,0.00,,,0.00,,2013-09-26 21:23:00,
2013-09-26 17:44:00,56.0,49.0,30.11,WNW,302,8.0,16.0,76,0.00,,,0.00,,2013-09-26 21:44:00,
2013-09-26 17:54:00,56.0,50.0,30.12,NW,323,5.0,12.0,79,0.00,,,0.00,,2013-09-26 21:54:00,
2013-09-26 18:14:00,56.0,49.0,30.12,North,10,6.0,16.0,77,0.00,,,0.00,,2013-09-26 22:14:00,
2013-09-26 18:24:00,56.0,50.0,30.13,NW,305,7.0,12.0,79,0.00,,,0.00,,2013-09-26 22:24:00,
2013-09-26 18:43:00,55.0,49.0,30.14,NNW,343,4.0,12.0,80,0.00,,,0.00,,2013-09-26 22:43:00,
2013-09-26 18:54:00,55.0,49.0,30.14,NW,326,6.0,11.0,80,0.00,,,0.00,,2013-09-26 22:54:00,
2013-09-26 19:12:00,55.0,49.0,30.14,NW,322,4.0,13.0,81,0.00,,,0.00,,2013-09-26 23:12:00,
2013-09-26 19:23:00,54.0,49.0,30.15,North,11,0.0,8.0,82,0.00,,,0.00,,2013-09-26 23:23:00,
2013-09-26 19:53:00,54.0,49.0,30.15,NNW,345,5.0,12.0,83,0.00,,,0.00,,2013-09-26 23:53:00,
2013-09-26 20:22:00,54.0,49.0,30.16,WNW,301,6.0,14.0,83,0.00,,,0.00,,2013-09-27 00:22:00,
2013-09-26 20:43:00,54.0,49.0,30.16,NW,316,4.0,11.0,84,0.00,,,0.00,,2013-09-27 00:43:00,
2013-09-26 20:52:00,54.0,49.0,30.17,NW,307,5.0,12.0,84,0.00,,,0.00,,2013-09-27 00:52:00,
2013-09-26 21:12:00,54.0,50.0,30.17,NW,326,5.0,14.0,85,0.00,,,0.00,,2013-09-27 01:12:00,
2013-09-26 21:23:00,53.0,49.0,30.17,WNW,285,3.0,13.0,85,0.00,,,0.00,,2013-09-27 01:23:00,
2013-09-26 21:42:00,53.0,49.0,30.17,NNW,340,6.0,13.0,85,0.00,,,0.00,,2013-09-27 01:42:00,
2013-09-26 21:52:00,53.0,49.0,30.17,NW,307,4.0,10.0,85,0.00,,,0.00,,2013-09-27 01:52:00,
2013-09-26 22:12:00,53.0,49.0,30.17,NNW,341,7.0,14.0,86,0.00,,,0.00,,2013-09-27 02:12:00,
2013-09-26 22:22:00,53.0,49.0,30.18,NNW,343,4.0,10.0,86,0.00,,,0.00,,2013-09-27 02:22:00,
2013-09-26 22:43:00,53.0,49.0,30.18,NW,305,5.0,11.0,86,0.00,,,0.00,,2013-09-27 02:43:00,
2013-09-26 22:53:00,53.0,49.0,30.17,WNW,299,5.0,10.0,86,0.00,,,0.00,,2013-09-27 02:53:00,
2013-09-26 23:12:00,53.0,49.0,30.17,NW,322,4.0,12.0,86,0.00,,,0.00,,2013-09-27 03:12:00,
2013-09-26 23:22:00,53.0,49.0,30.18,NW,308,5.0,12.0,86,0.00,,,0.00,,2013-09-27 03:22:00,
2013-09-26 23:44:00,53.0,49.0,30.18,WNW,291,5.0,12.0,87,0.00,,,0.00,,2013-09-27 03:44:00,
2013-09-26 23:55:00,53.0,49.0,30.18,NW,308,4.0,11.0,87,0.00,,,0.00,,2013-09-27 03:55:00,